Terminal Aerodrome Forecast
Issued by NWS Riverton, WY

Home | Current Version | Previous Version | Text Only | Print | Product List | Glossary On
Versions: 1 2 3 4 5 6 7 8 9 10 11 12 13 14
000
FTUS45 KRIW 261700
TAFRIW
TAF
KRIW 261729Z 2618/2718 VRB05KT P6SM OVC025
     FM262000 VRB05KT P6SM SCT030
     FM262200 26011KT P6SM SCT050 SCT110
     FM270100 30014KT P6SM SCT110 BKN250=

USA.gov is the U.S. government's official web portal to all federal, state and local government web resources and services.